Cole Camp, MO

8:04 PM CDT on October 24, 2014 (GMT -0500)
Skyhaven | Change Station
CLOSE
Current Station
Airport
Location: Warrensburg,
Elevation: 797 ft
Nearby Weather Stations

Elev 797 ft 38.78 °N, 93.80 °W | Updated 29 minutes ago

Clear
Clear
66 °F
Feels Like 66 °F
N
6
Wind Variable Wind from South

Today
High -- | Low -- °F
--% Chance of Precip.
Yesterday
High -- | Low -- °F
Precip. -- in
7:30 AM 6:22 PM
New Moon, 1% visible
Pressure 29.96 in
Visibility 10.0 miles
Clouds Clear
Dew Point 59 °F
Humidity 78%
Rainfall 0.00 in
Snow Depth Not available.
UV 0 out of 12
Pollen 2.50 out of 12
Air Quality Not available.
Flu Activity No Activity
METAR KRCM 250035Z AUTO 17005KT 10SM CLR 19/15 A2996 RMK AO2

More Conditions Fewer Conditions

Pressure 29.96 in
Visibility 10.0 miles
Clouds Clear
Dew Point 59 °F
Humidity 78%
Rainfall 0.00 in
Snow Depth Not available.
UV 0 out of 12
Pollen 2.50 out of 12
Air Quality Not available.
Flu Activity No Activity
METAR KRCM 250035Z AUTO 17005KT 10SM CLR 19/15 A2996 RMK AO2

More Conditions Fewer Conditions

10-Day Weather Forecast

Almanac

Astronomy

Oct. 24, 2014 Rise Set
Actual Time 7:30 AM CDT 6:22 PM CDT
Civil Twilight 7:03 AM CDT 6:49 PM CDT
Nautical Twilight 6:32 AM CDT 7:20 PM CDT
Astronomical Twilight 6:02 AM CDT 7:51 PM CDT
Moon 8:10 AM CDT (10/24) 7:03 PM CDT (10/24)
Length of Visible Light 11h 45m
Length of Day
10h 51m
Tomorrow will be 2m 18s shorter.
New Moon, 1% of the Moon is Illuminated
Today
New Moon
Oct 30
First Quarter
Nov 6
Full
Nov 14
Last Quarter
Nov 22
New

Today's Extremes

State Highs State Lows

Community

WunderPhotos

Upload Photos

1,764,737 photos uploaded!

WunderBlogs® & News

Nearby

Snow Depth

Station Depth Elevation
No new snow has been reported.

Earthquake Activity

City Distance Mag. Time & Date
No recent earthquake activity has been reported nearby.
Minimum magnitude displayed is 2.5.

Coastal Water Temperatures

Place Temperature
No Stations Reporting

Nearby Weather Stations